Placerville, CA (95667)

9:26 AM PDT on April 19, 2015 (GMT -0700)
Ladera Lane | | Change Station
CLOSE
Current Station
Personal Weather Station
Location: Placerville, CA
Elevation: 2090 ft
Nearby Weather Stations

Elev 2090 ft 38.74 °N, 120.78 °W | Updated 37 seconds ago

Clear
Clear
61.7 °F
Feels Like 61.7 °F
N
0.0
Wind Variable Wind from SSE
Gusts 0.0 mph

Today
High -- | Low -- °F
--% Chance of Precip.
Yesterday
High -- | Low -- °F
Precip. -- in
6:21 AM 7:43 PM
New Moon, 1% visible
Pressure 29.99 in
Visibility 10.0 miles
Clouds Clear
Dew Point 48 °F
Humidity 61%
Rainfall 0.00 in
Snow Depth Not available.
UV 4 out of 12
Pollen 9.50 out of 12
Air Quality Not available.
Flu Activity Sporadic
METAR KPVF 191615Z AUTO 00000KT 10SM CLR 20/04 A2999 RMK AO1

More Conditions Fewer Conditions

Pressure 29.99 in
Visibility 10.0 miles
Clouds Clear
Dew Point 48 °F
Humidity 61%
Rainfall 0.00 in
Snow Depth Not available.
UV 4 out of 12
Pollen 9.50 out of 12
Air Quality Not available.
Flu Activity Sporadic
METAR KPVF 191615Z AUTO 00000KT 10SM CLR 20/04 A2999 RMK AO1

More Conditions Fewer Conditions

10-Day Weather Forecast

Almanac

Astronomy

Apr. 19, 2015 Rise Set
Actual Time
Civil Twilight
Nautical Twilight
Astronomical Twilight
Moon
Length of Visible Light
Length of Day
Tomorrow will be .
, % of the Moon is Illuminated

Today's Extremes

State Highs State Lows

Community

WunderPhotos

Upload Photos

1,814,844 photos uploaded!

WunderBlogs® & News

Nearby

Air Quality

  Air Quality AQ Index Pollutant
Not available.

Snow Depth

Station Depth Elevation

Earthquake Activity

City Distance Mag. Time & Date
Minimum magnitude displayed is 2.5.

Coastal Water Temperatures

Place Temperature

Stations

Nearby Weather Stations

Station Location Temp. Windchill Dew Point Humidity Wind Precip. Elev Updated Type